Time,TemperatureF,DewpointF,PressureIn,WindDirection,WindDirectionDegrees,WindSpeedMPH,WindSpeedGustMPH,Humidity,HourlyPrecipIn,Conditions,Clouds,dailyrainin,SoftwareType,DateUTC
2013-05-15 00:13:00,62.6,48.1,29.85,West,270,3.1,-999.0,59,-99.99,,,0.00,Acu-Link.com,2013-05-15 04:13:00,
2013-05-15 00:28:00,62.6,49.0,29.84,NE,45,4.0,-999.0,61,-99.99,,,0.00,Acu-Link.com,2013-05-15 04:28:00,
2013-05-15 00:43:00,62.6,48.5,29.84,NNW,337,2.7,-999.0,60,-99.99,,,0.00,Acu-Link.com,2013-05-15 04:43:00,
2013-05-15 00:59:00,62.6,49.0,29.84,NNE,22,1.1,-999.0,61,-99.99,,,0.00,Acu-Link.com,2013-05-15 04:59:00,
2013-05-15 01:14:00,60.8,47.7,29.84,North,0,2.0,-999.0,62,-99.99,,,0.00,Acu-Link.com,2013-05-15 05:14:00,
2013-05-15 01:29:00,60.8,48.1,29.83,WNW,292,1.6,-999.0,63,-99.99,,,0.00,Acu-Link.com,2013-05-15 05:29:00,
2013-05-15 01:44:00,60.8,48.5,29.83,WNW,292,1.1,-999.0,64,-99.99,,,0.00,Acu-Link.com,2013-05-15 05:44:00,
2013-05-15 02:00:00,60.8,49.4,29.82,NNW,337,1.6,-999.0,66,-99.99,,,0.00,Acu-Link.com,2013-05-15 06:00:00,
2013-05-15 02:15:00,60.8,49.8,29.82,WNW,292,4.0,-999.0,67,-99.99,,,0.00,Acu-Link.com,2013-05-15 06:15:00,
2013-05-15 02:30:00,60.8,50.2,29.82,WNW,292,1.6,-999.0,68,-99.99,,,0.00,Acu-Link.com,2013-05-15 06:30:00,
2013-05-15 02:45:00,60.8,50.2,29.82,WNW,292,1.6,-999.0,68,-99.99,,,0.00,Acu-Link.com,2013-05-15 06:45:00,
2013-05-15 03:01:00,60.8,50.6,29.82,WNW,292,2.0,-999.0,69,-99.99,,,0.00,Acu-Link.com,2013-05-15 07:01:00,
2013-05-15 03:16:00,60.8,51.0,29.82,West,270,0.0,-999.0,70,-99.99,,,0.00,Acu-Link.com,2013-05-15 07:16:00,
2013-05-15 03:31:00,60.8,51.0,29.82,SW,225,2.7,-999.0,70,-99.99,,,0.00,Acu-Link.com,2013-05-15 07:31:00,
2013-05-15 03:47:00,60.8,51.3,29.82,NE,45,1.6,-999.0,71,-99.99,,,0.00,Acu-Link.com,2013-05-15 07:47:00,
2013-05-15 04:02:00,60.8,51.3,29.81,WNW,292,1.6,-999.0,71,-99.99,,,0.00,Acu-Link.com,2013-05-15 08:02:00,
2013-05-15 04:18:00,60.8,51.7,29.81,NNW,337,4.7,-999.0,72,-99.99,,,0.00,Acu-Link.com,2013-05-15 08:18:00,
2013-05-15 04:33:00,60.8,52.1,29.82,West,270,5.6,-999.0,73,-99.99,,,0.00,Acu-Link.com,2013-05-15 08:33:00,
2013-05-15 04:48:00,60.8,52.8,29.82,South,180,2.0,-999.0,75,-99.99,,,0.00,Acu-Link.com,2013-05-15 08:48:00,
2013-05-15 05:03:00,59.0,51.1,29.82,WNW,292,2.0,-999.0,75,-99.99,,,0.00,Acu-Link.com,2013-05-15 09:03:00,
2013-05-15 05:18:00,59.0,51.1,29.82,ESE,112,1.1,-999.0,75,-99.99,,,0.00,Acu-Link.com,2013-05-15 09:18:00,
2013-05-15 05:34:00,59.0,51.1,29.83,WSW,247,0.0,-999.0,75,-99.99,,,0.00,Acu-Link.com,2013-05-15 09:34:00,
2013-05-15 05:49:00,59.0,51.4,29.84,NW,315,0.0,-999.0,76,-99.99,,,0.00,Acu-Link.com,2013-05-15 09:49:00,
2013-05-15 06:04:00,59.0,52.1,29.84,NNW,337,3.1,-999.0,78,-99.99,,,0.00,Acu-Link.com,2013-05-15 10:04:00,
2013-05-15 06:19:00,59.0,52.1,29.84,WNW,292,0.0,-999.0,78,-99.99,,,0.00,Acu-Link.com,2013-05-15 10:19:00,
2013-05-15 06:35:00,57.2,51.1,29.83,West,270,1.1,-999.0,80,-99.99,,,0.00,Acu-Link.com,2013-05-15 10:35:00,
2013-05-15 06:50:00,57.2,51.8,29.84,WSW,247,0.0,-999.0,82,-99.99,,,0.00,Acu-Link.com,2013-05-15 10:50:00,
2013-05-15 07:21:00,59.0,53.2,29.84,SSW,202,3.1,-999.0,81,-99.99,,,0.00,Acu-Link.com,2013-05-15 11:21:00,
2013-05-15 07:36:00,60.8,53.9,29.85,WNW,292,1.1,-999.0,78,-99.99,,,0.00,Acu-Link.com,2013-05-15 11:36:00,
2013-05-15 07:51:00,62.6,54.6,29.85,South,180,3.6,-999.0,75,-99.99,,,0.00,Acu-Link.com,2013-05-15 11:51:00,
2013-05-15 08:06:00,62.6,54.2,29.85,SSE,157,3.1,-999.0,74,-99.99,,,0.00,Acu-Link.com,2013-05-15 12:06:00,
2013-05-15 08:21:00,68.0,56.2,29.85,South,180,4.7,-999.0,66,-99.99,,,0.00,Acu-Link.com,2013-05-15 12:21:00,
2013-05-15 08:37:00,66.2,54.9,29.85,NE,45,2.7,-999.0,67,-99.99,,,0.00,Acu-Link.com,2013-05-15 12:37:00,
2013-05-15 08:52:00,68.0,55.8,29.86,South,180,5.1,-999.0,65,-99.99,,,0.00,Acu-Link.com,2013-05-15 12:52:00,
2013-05-15 09:07:00,69.8,57.1,29.85,SW,225,3.1,-999.0,64,-99.99,,,0.00,Acu-Link.com,2013-05-15 13:07:00,
2013-05-15 09:22:00,69.8,56.6,29.86,South,180,4.0,-999.0,63,-99.99,,,0.00,Acu-Link.com,2013-05-15 13:22:00,
2013-05-15 09:38:00,71.6,57.0,29.86,South,180,5.1,-999.0,60,-99.99,,,0.00,Acu-Link.com,2013-05-15 13:38:00,
2013-05-15 10:08:00,73.4,59.1,29.86,South,180,4.7,-999.0,61,-99.99,,,0.00,Acu-Link.com,2013-05-15 14:08:00,
2013-05-15 10:24:00,73.4,58.2,29.85,SSE,157,2.7,-999.0,59,-99.99,,,0.00,Acu-Link.com,2013-05-15 14:24:00,
2013-05-15 10:39:00,77.0,60.6,29.85,SSE,157,5.6,-999.0,57,-99.99,,,0.00,Acu-Link.com,2013-05-15 14:39:00,
2013-05-15 10:54:00,77.0,59.6,29.85,South,180,5.6,-999.0,55,-99.99,,,0.00,Acu-Link.com,2013-05-15 14:54:00,
2013-05-15 11:09:00,80.6,61.3,29.85,SSE,157,2.0,-999.0,52,-99.99,,,0.00,Acu-Link.com,2013-05-15 15:09:00,
2013-05-15 11:25:00,80.6,60.2,29.85,SSE,157,4.0,-999.0,50,-99.99,,,0.00,Acu-Link.com,2013-05-15 15:25:00,
2013-05-15 11:40:00,80.6,59.6,29.84,South,180,6.3,-999.0,49,-99.99,,,0.00,Acu-Link.com,2013-05-15 15:40:00,
2013-05-15 11:55:00,82.4,59.5,29.84,South,180,5.1,-999.0,46,-99.99,,,0.00,Acu-Link.com,2013-05-15 15:55:00,
2013-05-15 12:10:00,82.4,60.1,29.83,South,180,4.7,-999.0,47,-99.99,,,0.00,Acu-Link.com,2013-05-15 16:10:00,
2013-05-15 12:26:00,86.0,61.5,29.83,South,180,5.1,-999.0,44,-99.99,,,0.00,Acu-Link.com,2013-05-15 16:26:00,
2013-05-15 12:41:00,86.0,60.9,29.82,South,180,5.1,-999.0,43,-99.99,,,0.00,Acu-Link.com,2013-05-15 16:41:00,
2013-05-15 12:56:00,89.6,62.0,29.82,SSW,202,3.6,-999.0,40,-99.99,,,0.00,Acu-Link.com,2013-05-15 16:56:00,
2013-05-15 13:11:00,87.8,60.4,29.81,SSE,157,7.2,-999.0,40,-99.99,,,0.00,Acu-Link.com,2013-05-15 17:11:00,
2013-05-15 13:26:00,91.4,61.4,29.81,SSE,157,4.0,-999.0,37,-99.99,,,0.00,Acu-Link.com,2013-05-15 17:26:00,
2013-05-15 13:42:00,91.4,62.2,29.80,SSE,157,2.7,-999.0,38,-99.99,,,0.00,Acu-Link.com,2013-05-15 17:42:00,
2013-05-15 13:57:00,91.4,61.4,29.80,SSW,202,2.0,-999.0,37,-99.99,,,0.00,Acu-Link.com,2013-05-15 17:57:00,
2013-05-15 14:43:00,91.4,60.6,29.78,SSE,157,3.6,-999.0,36,-99.99,,,0.00,Acu-Link.com,2013-05-15 18:43:00,
2013-05-15 14:58:00,95.0,65.4,29.77,ESE,112,2.7,-999.0,38,-99.99,,,0.00,Acu-Link.com,2013-05-15 18:58:00,
2013-05-15 15:13:00,91.4,64.3,29.77,South,180,3.1,-999.0,41,-99.99,,,0.00,Acu-Link.com,2013-05-15 19:13:00,
2013-05-15 15:28:00,91.4,62.2,29.76,South,180,4.0,-999.0,38,-99.99,,,0.00,Acu-Link.com,2013-05-15 19:28:00,
2013-05-15 16:14:00,91.4,61.4,29.74,ESE,112,4.0,-999.0,37,-99.99,,,0.00,Acu-Link.com,2013-05-15 20:14:00,
2013-05-15 16:45:00,91.4,61.4,29.74,North,0,3.1,-999.0,37,-99.99,,,0.00,Acu-Link.com,2013-05-15 20:45:00,
2013-05-15 17:00:00,91.4,62.9,29.73,NNW,337,2.7,-999.0,39,-99.99,,,0.00,Acu-Link.com,2013-05-15 21:00:00,
2013-05-15 17:15:00,89.6,60.6,29.73,West,270,2.7,-999.0,38,-99.99,,,0.00,Acu-Link.com,2013-05-15 21:15:00,
2013-05-15 17:30:00,89.6,62.0,29.72,SW,225,3.1,-999.0,40,-99.99,,,0.00,Acu-Link.com,2013-05-15 21:30:00,
2013-05-15 17:46:00,87.8,62.5,29.72,SSE,157,2.0,-999.0,43,-99.99,,,0.00,Acu-Link.com,2013-05-15 21:46:00,
2013-05-15 18:01:00,87.8,62.5,29.72,SW,225,2.0,-999.0,43,-99.99,,,0.00,Acu-Link.com,2013-05-15 22:01:00,
2013-05-15 18:16:00,86.0,63.4,29.71,NNW,337,1.6,-999.0,47,-99.99,,,0.00,Acu-Link.com,2013-05-15 22:16:00,
2013-05-15 18:31:00,84.2,62.4,29.71,West,270,1.6,-999.0,48,-99.99,,,0.00,Acu-Link.com,2013-05-15 22:31:00,
2013-05-15 18:46:00,82.4,62.4,29.71,SW,225,2.7,-999.0,51,-99.99,,,0.00,Acu-Link.com,2013-05-15 22:46:00,
2013-05-15 19:17:00,82.4,62.4,29.71,ESE,112,4.0,-999.0,51,-99.99,,,0.00,Acu-Link.com,2013-05-15 23:17:00,
2013-05-15 19:32:00,80.6,62.4,29.71,NNW,337,2.0,-999.0,54,-99.99,,,0.00,Acu-Link.com,2013-05-15 23:32:00,
2013-05-15 19:47:00,80.6,62.4,29.71,NNW,337,1.6,-999.0,54,-99.99,,,0.00,Acu-Link.com,2013-05-15 23:47:00,
2013-05-15 20:03:00,78.8,61.2,29.71,NNW,337,1.1,-999.0,55,-99.99,,,0.00,Acu-Link.com,2013-05-16 00:03:00,
2013-05-15 20:18:00,78.8,62.3,29.72,NNW,337,3.1,-999.0,57,-99.99,,,0.00,Acu-Link.com,2013-05-16 00:18:00,
2013-05-15 20:33:00,77.0,61.1,29.72,NNE,22,1.1,-999.0,58,-99.99,,,0.00,Acu-Link.com,2013-05-16 00:33:00,
2013-05-15 20:49:00,77.0,61.6,29.72,West,270,1.6,-999.0,59,-99.99,,,0.00,Acu-Link.com,2013-05-16 00:49:00,
2013-05-15 21:04:00,77.0,62.0,29.72,NNE,22,1.6,-999.0,60,-99.99,,,0.00,Acu-Link.com,2013-05-16 01:04:00,
2013-05-15 21:19:00,73.4,59.6,29.72,NNE,22,0.0,-999.0,62,-99.99,,,0.00,Acu-Link.com,2013-05-16 01:19:00,
2013-05-15 21:34:00,73.4,60.5,29.73,NNE,22,1.1,-999.0,64,-99.99,,,0.00,Acu-Link.com,2013-05-16 01:34:00,
2013-05-15 21:50:00,73.4,61.3,29.73,NW,315,1.1,-999.0,66,-99.99,,,0.00,Acu-Link.com,2013-05-16 01:50:00,
2013-05-15 22:05:00,71.6,59.6,29.74,NNE,22,1.6,-999.0,66,-99.99,,,0.00,Acu-Link.com,2013-05-16 02:05:00,
2013-05-15 22:20:00,71.6,59.6,29.74,NNE,22,1.1,-999.0,66,-99.99,,,0.00,Acu-Link.com,2013-05-16 02:20:00,
2013-05-15 22:35:00,71.6,60.0,29.74,NE,45,0.0,-999.0,67,-99.99,,,0.00,Acu-Link.com,2013-05-16 02:35:00,
2013-05-15 22:51:00,71.6,60.5,29.74,NNE,22,0.0,-999.0,68,-99.99,,,0.00,Acu-Link.com,2013-05-16 02:51:00,
2013-05-15 23:06:00,71.6,60.5,29.73,NNE,22,0.0,-999.0,68,-99.99,,,0.00,Acu-Link.com,2013-05-16 03:06:00,
2013-05-15 23:37:00,69.8,59.6,29.73,NNW,337,0.0,-999.0,70,-99.99,,,0.00,Acu-Link.com,2013-05-16 03:37:00,
2013-05-15 23:52:00,69.8,60.4,29.73,NE,45,0.0,-999.0,72,-99.99,,,0.00,Acu-Link.com,2013-05-16 03:52:00,